Asiatic Orchid — 9V3925 — position and weather

sailwx.info

Track history (hours):
 
Tides and Currents Weather Stations Pressure Air Temp Water Temp Dewpoint Dewpoint Depression Visibility Wind Speed Wind Dir Waves Ship Positions

Asiatic Orchid

Last reported at 2018-Jun-16 20:45 UTC. Time now 2018-Jun-18 09:28 UTC.
Position N 31°24' E 032°27'.

Length 149 m; draft 6.4 m.

Type: Ship (hazmat cat A). MMSI: 565852000.

Date/timePositionNaut miles runAvg speedWind from/ knotsBaromVisibWave heightAir tempDewpointWater temp
2018-Jun-16 20:45N 31°24' E 032°27'0 0.0
2018-Jun-16 20:03N 31°24' E 032°27'0 0.2
2018-Jun-16 19:57N 31°24' E 032°27'0 0.0
2018-Jun-16 19:24N 31°24' E 032°27'0 0.0
2018-Jun-16 18:08N 31°24' E 032°27'0 0.0
2018-Jun-16 17:55N 31°24' E 032°27'0 0.1
2018-Jun-16 17:29N 31°24' E 032°27'0 0.0
2018-Jun-16 16:59N 31°24' E 032°27'0 0.0
2018-Jun-16 16:29N 31°24' E 032°27'0 0.0
2018-Jun-16 16:00N 31°24' E 032°27'0 0.0
2018-Jun-16 15:28N 31°24' E 032°27'0 0.0
2018-Jun-16 14:56N 31°24' E 032°27'0 0.0
2018-Jun-16 14:24N 31°24' E 032°27'17 1.7
2018-Jun-16 04:36N 31°41' E 032°29'1 8.3
2018-Jun-16 04:30N 31°41' E 032°30'4 8.4
2018-Jun-16 04:00N 31°43' E 032°35'4 7.7
2018-Jun-16 03:30N 31°47' E 032°36'4 8.6
2018-Jun-16 03:00N 31°48' E 032°41'4 8.5
2018-Jun-16 02:30N 31°49' E 032°45'4 8.3
2018-Jun-16 02:00N 31°50' E 032°50'4 8.4
2018-Jun-16 01:29N 31°52' E 032°55'4 8.5
2018-Jun-16 01:01N 31°53' E 032°60'4 8.6
2018-Jun-16 00:30N 31°55' E 033°04'4 8.8
2018-Jun-16 00:00N 31°56' E 033°09'4 8.9
2018-Jun-15 23:30N 31°58' E 033°14'5 9.0
2018-Jun-15 23:00N 31°59' E 033°19'5 9.1
2018-Jun-15 22:28N 32°01' E 033°25'4 9.2
2018-Jun-15 22:00N 32°02' E 033°29'5 9.3
2018-Jun-15 21:30N 32°04' E 033°34'5 9.5
2018-Jun-15 21:00N 32°05' E 033°40'5 9.6
2018-Jun-15 20:30N 32°06' E 033°45'5 9.5
2018-Jun-15 20:00N 32°07' E 033°51'5 9.2
2018-Jun-15 19:31N 32°06' E 033°56'5 9.2
2018-Jun-15 19:00N 32°04' E 034°01'5 9.1
2018-Jun-15 18:30N 32°02' E 034°06'4 9.0
2018-Jun-15 18:01N 32°00' E 034°11'4 8.9
2018-Jun-15 17:30N 31°58' E 034°15'4 8.8
2018-Jun-15 17:00N 31°57' E 034°20'4 8.8
2018-Jun-15 16:31N 31°55' E 034°25'5 8.7
2018-Jun-15 15:55N 31°53' E 034°31'4 8.5
2018-Jun-15 15:29N 31°52' E 034°35'3 7.3
2018-Jun-15 15:01N 31°50' E 034°38'1 1.4
2018-Jun-15 14:22N 31°50' E 034°38'0 0.0
2018-Jun-15 13:46N 31°50' E 034°38'0 0.0
2018-Jun-15 12:16N 31°50' E 034°38'0 0.0
2018-Jun-15 11:58N 31°50' E 034°38'0 0.0
2018-Jun-15 11:22N 31°50' E 034°38'0 0.0
2018-Jun-15 10:58N 31°50' E 034°38'0 0.0
2018-Jun-15 10:28N 31°50' E 034°38'0 0.0
2018-Jun-15 09:52N 31°50' E 034°38'0 0.0
2018-Jun-15 09:28N 31°50' E 034°38'0 0.0
2018-Jun-15 08:40N 31°50' E 034°38'0 0.0
2018-Jun-15 08:28N 31°50' E 034°38'  
2018-Jun-10 21:04N 32°02' E 033°36'213.8
2018-Jun-10 20:57N 32°02' E 033°34'613.8
2018-Jun-10 20:30N 31°59' E 033°27'713.9
2018-Jun-10 20:00N 31°57' E 033°20'714.0
2018-Jun-10 19:30N 31°55' E 033°12'1014.2
2018-Jun-10 18:48N 31°51' E 033°01'614.4
2018-Jun-10 18:22N 31°49' E 032°54'514.2
2018-Jun-10 18:00N 31°47' E 032°48'714.0
2018-Jun-10 17:30N 31°44' E 032°41'714.5
2018-Jun-10 17:01N 31°40' E 032°34'715.0
2018-Jun-10 16:31N 31°37' E 032°26'612.1
2018-Jun-10 16:00N 31°31' E 032°25'713.1
2018-Jun-10 15:30N 31°24' E 032°25'611.4
2018-Jun-10 14:59N 31°19' E 032°23'6 3.4
2018-Jun-10 13:06N 31°12' E 032°21'0 0.0
2018-Jun-10 13:00N 31°12' E 032°21'8 0.2
2018-Jun-09 04:21N 31°20' E 032°23'410.0
2018-Jun-09 03:57N 31°23' E 032°25'1 2.8
2018-Jun-09 03:28N 31°24' E 032°26'59 9.3
2018-Jun-08 21:11N 32°00' E 033°21'1014.0
2018-Jun-08 20:30N 32°03' E 033°31'1114.2
2018-Jun-08 19:42N 32°07' E 033°44'314.3
2018-Jun-08 19:30N 32°07' E 033°47'713.9
2018-Jun-08 19:00N 32°06' E 033°55'714.0
2018-Jun-08 18:30N 32°03' E 034°03'714.3
2018-Jun-08 18:00N 32°00' E 034°11'814.2
2018-Jun-08 17:26N 31°57' E 034°20'18 5.3
2018-Jun-08 14:03N 31°49' E 034°39'0 0.1
2018-Jun-08 14:00N 31°49' E 034°39'0 0.0
2018-Jun-08 13:30N 31°49' E 034°39'0 0.0
2018-Jun-08 13:00N 31°49' E 034°39'2 0.0
2018-Jun-06 21:03N 31°51' E 034°38'1 3.8
2018-Jun-06 20:52N 31°51' E 034°38'  
Track history (hours):
 
Tides and Currents Weather Stations Pressure Air Temp Water Temp Dewpoint Dewpoint Depression Visibility Wind Speed Wind Dir Waves Ship Positions

Asiatic Orchid

Last reported at 2018-Jun-16 20:45 UTC. Time now 2018-Jun-18 09:28 UTC.
Position N 31°24' E 032°27'.

Length 149 m; draft 6.4 m.

Type: Ship (hazmat cat A). MMSI: 565852000.

Date/timePositionNaut miles runAvg speedWind from/ knotsBaromVisibWave heightAir tempDewpointWater temp
2018-Jun-16 20:45N 31°24' E 032°27'0 0.0
2018-Jun-16 20:03N 31°24' E 032°27'0 0.2
2018-Jun-16 19:57N 31°24' E 032°27'0 0.0
2018-Jun-16 19:24N 31°24' E 032°27'0 0.0
2018-Jun-16 18:08N 31°24' E 032°27'0 0.0
2018-Jun-16 17:55N 31°24' E 032°27'0 0.1
2018-Jun-16 17:29N 31°24' E 032°27'0 0.0
2018-Jun-16 16:59N 31°24' E 032°27'0 0.0
2018-Jun-16 16:29N 31°24' E 032°27'0 0.0
2018-Jun-16 16:00N 31°24' E 032°27'0 0.0
2018-Jun-16 15:28N 31°24' E 032°27'0 0.0
2018-Jun-16 14:56N 31°24' E 032°27'0 0.0
2018-Jun-16 14:24N 31°24' E 032°27'17 1.7
2018-Jun-16 04:36N 31°41' E 032°29'1 8.3
2018-Jun-16 04:30N 31°41' E 032°30'4 8.4
2018-Jun-16 04:00N 31°43' E 032°35'4 7.7
2018-Jun-16 03:30N 31°47' E 032°36'4 8.6
2018-Jun-16 03:00N 31°48' E 032°41'4 8.5
2018-Jun-16 02:30N 31°49' E 032°45'4 8.3
2018-Jun-16 02:00N 31°50' E 032°50'4 8.4
2018-Jun-16 01:29N 31°52' E 032°55'4 8.5
2018-Jun-16 01:01N 31°53' E 032°60'4 8.6
2018-Jun-16 00:30N 31°55' E 033°04'4 8.8
2018-Jun-16 00:00N 31°56' E 033°09'4 8.9
2018-Jun-15 23:30N 31°58' E 033°14'5 9.0
2018-Jun-15 23:00N 31°59' E 033°19'5 9.1
2018-Jun-15 22:28N 32°01' E 033°25'4 9.2
2018-Jun-15 22:00N 32°02' E 033°29'5 9.3
2018-Jun-15 21:30N 32°04' E 033°34'5 9.5
2018-Jun-15 21:00N 32°05' E 033°40'5 9.6
2018-Jun-15 20:30N 32°06' E 033°45'5 9.5
2018-Jun-15 20:00N 32°07' E 033°51'5 9.2
2018-Jun-15 19:31N 32°06' E 033°56'5 9.2
2018-Jun-15 19:00N 32°04' E 034°01'5 9.1
2018-Jun-15 18:30N 32°02' E 034°06'4 9.0
2018-Jun-15 18:01N 32°00' E 034°11'4 8.9
2018-Jun-15 17:30N 31°58' E 034°15'4 8.8
2018-Jun-15 17:00N 31°57' E 034°20'4 8.8
2018-Jun-15 16:31N 31°55' E 034°25'5 8.7
2018-Jun-15 15:55N 31°53' E 034°31'4 8.5
2018-Jun-15 15:29N 31°52' E 034°35'3 7.3
2018-Jun-15 15:01N 31°50' E 034°38'1 1.4
2018-Jun-15 14:22N 31°50' E 034°38'0 0.0
2018-Jun-15 13:46N 31°50' E 034°38'0 0.0
2018-Jun-15 12:16N 31°50' E 034°38'0 0.0
2018-Jun-15 11:58N 31°50' E 034°38'0 0.0
2018-Jun-15 11:22N 31°50' E 034°38'0 0.0
2018-Jun-15 10:58N 31°50' E 034°38'0 0.0
2018-Jun-15 10:28N 31°50' E 034°38'0 0.0
2018-Jun-15 09:52N 31°50' E 034°38'0 0.0
2018-Jun-15 09:28N 31°50' E 034°38'0 0.0
2018-Jun-15 08:40N 31°50' E 034°38'0 0.0
2018-Jun-15 08:28N 31°50' E 034°38'  
2018-Jun-10 21:04N 32°02' E 033°36'213.8
2018-Jun-10 20:57N 32°02' E 033°34'613.8
2018-Jun-10 20:30N 31°59' E 033°27'713.9
2018-Jun-10 20:00N 31°57' E 033°20'714.0
2018-Jun-10 19:30N 31°55' E 033°12'1014.2
2018-Jun-10 18:48N 31°51' E 033°01'614.4
2018-Jun-10 18:22N 31°49' E 032°54'514.2
2018-Jun-10 18:00N 31°47' E 032°48'714.0
2018-Jun-10 17:30N 31°44' E 032°41'714.5
2018-Jun-10 17:01N 31°40' E 032°34'715.0
2018-Jun-10 16:31N 31°37' E 032°26'612.1
2018-Jun-10 16:00N 31°31' E 032°25'713.1
2018-Jun-10 15:30N 31°24' E 032°25'611.4
2018-Jun-10 14:59N 31°19' E 032°23'6 3.4
2018-Jun-10 13:06N 31°12' E 032°21'0 0.0
2018-Jun-10 13:00N 31°12' E 032°21'8 0.2
2018-Jun-09 04:21N 31°20' E 032°23'410.0
2018-Jun-09 03:57N 31°23' E 032°25'1 2.8
2018-Jun-09 03:28N 31°24' E 032°26'59 9.3
2018-Jun-08 21:11N 32°00' E 033°21'1014.0
2018-Jun-08 20:30N 32°03' E 033°31'1114.2
2018-Jun-08 19:42N 32°07' E 033°44'314.3
2018-Jun-08 19:30N 32°07' E 033°47'713.9
2018-Jun-08 19:00N 32°06' E 033°55'714.0
2018-Jun-08 18:30N 32°03' E 034°03'714.3
2018-Jun-08 18:00N 32°00' E 034°11'814.2
2018-Jun-08 17:26N 31°57' E 034°20'18 5.3
2018-Jun-08 14:03N 31°49' E 034°39'0 0.1
2018-Jun-08 14:00N 31°49' E 034°39'0 0.0
2018-Jun-08 13:30N 31°49' E 034°39'0 0.0
2018-Jun-08 13:00N 31°49' E 034°39'2 0.0
2018-Jun-06 21:03N 31°51' E 034°38'1 3.8
2018-Jun-06 20:52N 31°51' E 034°38'  

Dump ship's entire track history